Time;durP1;ratioP1;P1;durP2;ratioP2;P2;SDS_P1;SDS_P2;PMS_P1;PMS_P2;Temp;Humidity;BMP_temperature;BMP_pressure;BME280_temperature;BME280_humidity;BME280_pressure;Samples;Min_cycle;Max_cycle;Signal;HPM_P1;HPM_P2
2022/12/31 09:41:50;;;;;;;;;;;;;;;12.59;78.40;97437.59;4207054;27;10261;-64
2022/12/31 09:44:44;;;;;;;;;;;;;;;12.98;77.65;97447.72;4209054;28;5651;-65
2022/12/31 09:47:25;;;;;;;;;;;;;;;13.26;76.72;97434.50;4126556;28;5825;-72
2022/12/31 09:50:04;;;;;;;;;;;;;;;13.47;76.15;97438.06;4127566;28;5887;-71
2022/12/31 09:52:14;;;;;;;;;;;;;;;13.59;75.58;97429.38;4142061;28;5927;-71
2022/12/31 09:54:28;;;;;;;;;;;;;;;13.69;75.47;97429.00;4143799;28;5931;-71
2022/12/31 09:56:39;;;;;;;;;;;;;;;13.78;74.85;97433.13;4139620;28;6654;-71
2022/12/31 09:58:49;;;;;;;;;;;;;;;13.83;74.63;97428.06;4139571;28;5786;-71
2022/12/31 10:01:00;;;;;;;;;;;;;;;13.91;74.74;97411.94;4141876;28;5912;-71
2022/12/31 10:03:25;;;;;;;;;;;;;;;13.94;74.17;97411.56;4142440;28;5884;-71
2022/12/31 10:05:45;;;;;;;;;;;;;;;14.01;73.82;97413.41;4139202;28;7714;-71
2022/12/31 10:07:58;;;;;;;;;;;;;;;14.04;73.81;97407.66;4127557;28;5825;-71
2022/12/31 10:10:09;;;;;;;;;;;;;;;14.08;73.90;97407.09;4141874;28;5373;-71
2022/12/31 10:12:54;;;;;;;;;;;;;;;14.12;73.38;97418.13;4138677;28;7788;-71
2022/12/31 10:15:25;;;;;;;;;;;;;;;14.16;73.33;97414.06;4133918;28;5901;-71
2022/12/31 10:17:46;;;;;;;;;;;;;;;14.20;72.94;97409.97;4140916;28;5818;-71
2022/12/31 10:20:19;;;;;;;;;;;;;;;14.20;72.42;97402.00;4140920;28;5816;-71
2022/12/31 10:22:46;;;;;;;;;;;;;;;14.23;72.43;97378.47;4167738;28;5641;-72
2022/12/31 10:25:06;;;;;;;;;;;;;;;14.27;72.17;97389.56;4206204;28;5737;-71
2022/12/31 10:27:20;;;;;;;;;;;;;;;14.27;72.08;97390.38;4206901;28;5739;-72
2022/12/31 10:29:39;;;;;;;;;;;;;;;14.31;71.73;97385.47;4206389;28;5732;-72
2022/12/31 10:31:56;;;;;;;;;;;;;;;14.32;71.14;97391.59;4209319;28;5741;-72
2022/12/31 10:34:12;;;;;;;;;;;;;;;14.35;71.41;97381.38;4202729;28;6527;-71
2022/12/31 10:36:20;;;;;;;;;;;;;;;14.37;71.18;97383.81;4209869;28;5814;-72
2022/12/31 10:38:30;;;;;;;;;;;;;;;14.39;71.36;97376.47;4207350;28;5772;-72
2022/12/31 10:40:55;;;;;;;;;;;;;;;14.41;71.23;97375.25;4193515;28;5709;-71
2022/12/31 10:43:41;;;;;;;;;;;;;;;14.44;71.06;97374.88;4195780;28;5713;-71
2022/12/31 10:46:08;;;;;;;;;;;;;;;14.46;71.00;97374.66;4193337;28;5635;-72
2022/12/31 10:48:55;;;;;;;;;;;;;;;14.48;70.92;97372.59;4196434;28;6385;-71
2022/12/31 10:51:20;;;;;;;;;;;;;;;14.49;70.88;97366.25;4200191;28;5627;-71
2022/12/31 10:53:47;;;;;;;;;;;;;;;14.52;70.63;97366.69;4193427;28;5694;-70
2022/12/31 10:56:34;;;;;;;;;;;;;;;14.58;70.54;97367.72;4198865;28;5793;-70
2022/12/31 10:59:11;;;;;;;;;;;;;;;14.60;70.08;97360.34;4194951;28;5962;-71
2022/12/31 11:01:19;;;;;;;;;;;;;;;14.62;70.36;97368.13;4197367;28;7082;-70
2022/12/31 11:03:52;;;;;;;;;;;;;;;14.63;70.12;97359.94;4194183;28;5856;-70
2022/12/31 11:06:26;;;;;;;;;;;;;;;14.65;70.05;97357.06;4198193;28;5628;-70
2022/12/31 11:08:53;;;;;;;;;;;;;;;14.65;69.96;97346.44;4197971;28;6333;-70
2022/12/31 11:11:13;;;;;;;;;;;;;;;14.65;69.82;97355.22;4199016;28;5767;-70
2022/12/31 11:13:48;;;;;;;;;;;;;;;14.67;69.70;97352.38;4197611;28;5758;-70
2022/12/31 11:16:13;;;;;;;;;;;;;;;14.68;69.49;97332.72;4159206;28;5723;-70
2022/12/31 11:18:28;;;;;;;;;;;;;;;14.68;69.31;97341.50;4194492;28;5719;-70
2022/12/31 11:20:50;;;;;;;;;;;;;;;14.70;68.98;97330.66;4195332;28;6668;-70
2022/12/31 11:23:04;;;;;;;;;;;;;;;14.73;69.17;97332.94;4198059;28;5933;-72
2022/12/31 11:25:29;;;;;;;;;;;;;;;14.75;68.85;97328.22;4198409;28;5699;-82
2022/12/31 11:27:46;;;;;;;;;;;;;;;14.76;68.93;97333.31;4191001;28;5775;-86
2022/12/31 11:30:06;;;;;;;;;;;;;;;14.77;68.25;97323.50;4195218;28;5841;-81
2022/12/31 11:32:25;;;;;;;;;;;;;;;14.78;68.37;97323.28;4201861;28;5832;-79
2022/12/31 11:35:08;;;;;;;;;;;;;;;14.78;68.34;97317.13;4195123;28;5620;-77
2022/12/31 11:37:26;;;;;;;;;;;;;;;14.78;68.25;97311.81;4199068;28;5735;-80
2022/12/31 11:39:40;;;;;;;;;;;;;;;14.79;68.15;97302.81;4199135;28;5862;-79
2022/12/31 11:41:49;;;;;;;;;;;;;;;14.80;67.90;97297.28;4196636;28;5739;-77
2022/12/31 11:44:01;;;;;;;;;;;;;;;14.84;67.81;97289.72;4195036;28;5719;-80
2022/12/31 11:46:24;;;;;;;;;;;;;;;14.85;67.47;97289.50;4196837;28;5624;-83
2022/12/31 11:48:34;;;;;;;;;;;;;;;14.86;67.55;97279.66;4195060;28;5727;-74
2022/12/31 11:50:48;;;;;;;;;;;;;;;14.85;67.45;97291.34;4196923;28;5619;-75
2022/12/31 11:52:57;;;;;;;;;;;;;;;14.86;67.55;97285.00;4200317;28;5719;-78
2022/12/31 11:55:17;;;;;;;;;;;;;;;14.86;67.55;97282.34;4196788;28;5632;-75
2022/12/31 11:57:26;;;;;;;;;;;;;;;14.86;67.30;97271.69;4198232;28;5637;-79
2022/12/31 11:59:28;;;;;;;;;;;;;;;14.88;67.19;97268.81;4196628;28;5640;-72
2022/12/31 12:01:36;;;;;;;;;;;;;;;14.88;67.08;97264.31;4196684;28;5641;-75
2022/12/31 12:03:42;;;;;;;;;;;;;;;14.90;67.06;97264.91;4195608;28;6608;-71
2022/12/31 12:05:46;;;;;;;;;;;;;;;14.93;67.00;97267.13;4194442;28;5735;-71
2022/12/31 12:07:50;;;;;;;;;;;;;;;14.95;66.90;97259.78;4201401;28;5103;-72
2022/12/31 12:09:56;;;;;;;;;;;;;;;14.95;66.79;97254.47;4202121;28;5124;-72
2022/12/31 12:12:00;;;;;;;;;;;;;;;14.97;66.76;97257.72;4197357;28;6298;-71
2022/12/31 12:14:20;;;;;;;;;;;;;;;14.99;66.74;97250.34;4178144;28;5741;-71
2022/12/31 12:16:26;;;;;;;;;;;;;;;14.99;66.49;97250.34;4195955;28;5637;-71
2022/12/31 12:18:35;;;;;;;;;;;;;;;15.00;66.44;97246.66;4195381;28;5727;-71
2022/12/31 12:20:40;;;;;;;;;;;;;;;15.03;66.33;97246.22;4195908;28;5656;-71
2022/12/31 12:22:50;;;;;;;;;;;;;;;15.04;66.09;97245.19;4196110;28;6698;-72
2022/12/31 12:24:55;;;;;;;;;;;;;;;15.06;66.05;97248.50;4190632;28;5654;-67
2022/12/31 12:26:57;;;;;;;;;;;;;;;15.06;65.94;97245.81;4193126;28;5631;-68
2022/12/31 12:29:09;;;;;;;;;;;;;;;15.09;65.83;97231.28;4196330;28;5786;-68
2022/12/31 12:31:20;;;;;;;;;;;;;;;15.09;65.93;97237.41;4194509;28;6096;-71
2022/12/31 12:33:23;;;;;;;;;;;;;;;15.10;65.77;97235.56;4202123;28;5835;-71
2022/12/31 12:35:28;;;;;;;;;;;;;;;15.09;66.03;97241.91;4209133;28;5768;-71
2022/12/31 12:37:33;;;;;;;;;;;;;;;15.09;66.02;97241.91;4198325;28;5712;-72
2022/12/31 12:39:37;;;;;;;;;;;;;;;15.10;65.90;97241.72;4199238;28;5694;-72
2022/12/31 12:41:40;;;;;;;;;;;;;;;15.11;65.96;97242.53;4200022;28;5727;-71
2022/12/31 12:43:43;;;;;;;;;;;;;;;15.11;65.97;97238.00;4199579;28;5765;-72
2022/12/31 12:45:47;;;;;;;;;;;;;;;15.12;65.95;97238.81;4198578;28;5726;-71
2022/12/31 12:47:57;;;;;;;;;;;;;;;15.12;65.81;97242.31;4201135;28;5632;-73
2022/12/31 12:50:00;;;;;;;;;;;;;;;15.13;65.53;97245.78;4198961;28;5786;-73
2022/12/31 12:52:16;;;;;;;;;;;;;;;15.12;65.47;97241.50;4199231;28;5770;-73
2022/12/31 12:54:33;;;;;;;;;;;;;;;15.12;65.43;97239.66;4190689;28;5635;-73
2022/12/31 12:56:46;;;;;;;;;;;;;;;15.13;65.22;97245.78;4193646;28;5805;-73
2022/12/31 12:59:04;;;;;;;;;;;;;;;15.17;65.27;97246.16;4193941;28;5840;-72
2022/12/31 13:01:15;;;;;;;;;;;;;;;15.19;65.30;97252.13;4194935;28;5615;-73
2022/12/31 13:03:36;;;;;;;;;;;;;;;15.19;65.14;97244.97;4195202;28;6670;-71
2022/12/31 13:05:50;;;;;;;;;;;;;;;15.20;65.23;97243.09;4190775;28;6037;-70
2022/12/31 13:08:03;;;;;;;;;;;;;;;15.20;65.27;97245.78;4196189;28;5691;-71
2022/12/31 13:10:22;;;;;;;;;;;;;;;15.17;65.30;97235.53;4191564;28;5734;-71
2022/12/31 13:12:34;;;;;;;;;;;;;;;15.20;65.23;97238.59;4197737;28;5628;-71
2022/12/31 13:15:03;;;;;;;;;;;;;;;15.23;65.20;97240.00;4199640;28;5628;-71
2022/12/31 13:17:23;;;;;;;;;;;;;;;15.22;65.07;97233.06;4199399;28;6317;-71
2022/12/31 13:19:36;;;;;;;;;;;;;;;15.22;65.07;97239.19;4199490;28;5639;-71
2022/12/31 13:21:46;;;;;;;;;;;;;;;15.22;65.03;97235.72;4199379;28;6387;-71
2022/12/31 13:23:55;;;;;;;;;;;;;;;15.22;64.81;97241.88;4199569;28;5636;-71
2022/12/31 13:26:06;;;;;;;;;;;;;;;15.23;65.13;97245.34;4198623;28;5635;-71
2022/12/31 13:28:15;;;;;;;;;;;;;;;15.24;65.04;97239.81;4199956;28;6453;-71
2022/12/31 13:30:20;;;;;;;;;;;;;;;15.28;64.88;97237.53;4198604;28;5695;-71
2022/12/31 13:32:29;;;;;;;;;;;;;;;15.28;64.84;97248.19;4199250;28;5687;-71
2022/12/31 13:34:37;;;;;;;;;;;;;;;15.28;64.89;97238.34;4199276;28;5676;-71
2022/12/31 13:36:42;;;;;;;;;;;;;;;15.27;64.91;97243.88;4181642;28;5642;-71
2022/12/31 13:38:48;;;;;;;;;;;;;;;15.26;64.92;97244.91;4199477;28;5632;-71
2022/12/31 13:40:58;;;;;;;;;;;;;;;15.27;64.89;97252.69;4198662;28;5628;-72
2022/12/31 13:43:06;;;;;;;;;;;;;;;15.30;64.73;97254.13;4196901;28;5631;-72
2022/12/31 13:45:16;;;;;;;;;;;;;;;15.30;64.87;97249.63;4198708;28;6572;-72
2022/12/31 13:47:27;;;;;;;;;;;;;;;15.32;64.73;97254.72;4182870;28;5733;-72
2022/12/31 13:49:33;;;;;;;;;;;;;;;15.34;64.62;97247.34;4192587;28;6467;-72
2022/12/31 13:51:42;;;;;;;;;;;;;;;15.32;64.63;97255.56;4199271;28;6337;-72
2022/12/31 13:53:51;;;;;;;;;;;;;;;15.31;64.77;97250.44;4199519;28;5150;-72
2022/12/31 13:55:57;;;;;;;;;;;;;;;15.31;64.56;97247.78;4197741;28;7704;-72
2022/12/31 13:58:09;;;;;;;;;;;;;;;15.32;64.59;97255.56;4199322;28;5722;-72
2022/12/31 14:00:21;;;;;;;;;;;;;;;15.31;64.59;97251.25;4198477;28;5687;-72
2022/12/31 14:02:36;;;;;;;;;;;;;;;15.31;64.61;97274.41;4182997;28;5734;-72
2022/12/31 14:04:46;;;;;;;;;;;;;;;15.28;64.67;97270.28;4194030;28;5703;-72
2022/12/31 14:06:54;;;;;;;;;;;;;;;15.29;64.60;97265.78;4199386;28;5823;-72
2022/12/31 14:08:57;;;;;;;;;;;;;;;15.30;64.63;97259.47;4199347;28;5715;-72
2022/12/31 14:11:10;;;;;;;;;;;;;;;15.34;64.59;97258.00;4197941;28;5643;-72
2022/12/31 14:13:42;;;;;;;;;;;;;;;15.38;64.48;97259.19;4196242;28;5636;-72
2022/12/31 14:15:53;;;;;;;;;;;;;;;15.42;64.37;97258.59;4197160;28;5718;-72
2022/12/31 14:18:04;;;;;;;;;;;;;;;15.43;64.33;97262.88;4202734;28;5714;-72
2022/12/31 14:20:21;;;;;;;;;;;;;;;15.41;64.41;97264.13;4202463;28;5791;-72
2022/12/31 14:22:32;;;;;;;;;;;;;;;15.43;64.35;97268.22;4201648;28;5624;-72
2022/12/31 14:24:43;;;;;;;;;;;;;;;15.43;64.43;97268.22;4195265;28;5703;-72
2022/12/31 14:26:50;;;;;;;;;;;;;;;15.47;64.32;97262.44;4200082;28;5628;-72
2022/12/31 14:29:06;;;;;;;;;;;;;;;15.48;64.23;97259.56;4197815;28;5803;-72
2022/12/31 14:31:17;;;;;;;;;;;;;;;15.50;64.31;97268.16;4193131;28;5833;-72
2022/12/31 14:33:39;;;;;;;;;;;;;;;15.50;64.29;97268.16;4202169;28;5619;-72
2022/12/31 14:36:06;;;;;;;;;;;;;;;15.52;64.24;97273.31;4201036;28;5094;-72
2022/12/31 14:38:23;;;;;;;;;;;;;;;15.54;64.18;97264.06;4202202;28;6441;-72
2022/12/31 14:40:30;;;;;;;;;;;;;;;15.55;64.23;97271.00;4200647;28;5771;-72
2022/12/31 14:42:40;;;;;;;;;;;;;;;15.55;64.31;97276.34;4181289;28;5817;-72
2022/12/31 14:44:58;;;;;;;;;;;;;;;15.57;64.41;97273.47;4198377;28;5697;-72
2022/12/31 14:47:18;;;;;;;;;;;;;;;15.59;64.24;97279.41;4199222;28;5726;-72
2022/12/31 14:49:36;;;;;;;;;;;;;;;15.58;64.07;97281.25;4201410;28;5631;-72
2022/12/31 14:51:39;;;;;;;;;;;;;;;15.59;64.19;97282.88;4201601;28;5830;-72
2022/12/31 14:53:51;;;;;;;;;;;;;;;15.58;64.26;97275.91;4201444;28;6306;-72
2022/12/31 14:56:00;;;;;;;;;;;;;;;15.58;64.29;97275.09;4200914;28;5647;-72
2022/12/31 14:58:20;;;;;;;;;;;;;;;15.59;64.35;97282.06;4201857;28;6032;-72
2022/12/31 15:00:33;;;;;;;;;;;;;;;15.61;64.19;97282.69;4200340;28;7374;-72
2022/12/31 15:02:49;;;;;;;;;;;;;;;15.61;64.19;97285.34;4199828;28;5117;-72
2022/12/31 15:05:04;;;;;;;;;;;;;;;15.64;63.94;97283.09;4200972;28;5922;-72
2022/12/31 15:07:16;;;;;;;;;;;;;;;15.65;64.12;97286.59;4200431;28;5612;-72
2022/12/31 15:09:36;;;;;;;;;;;;;;;15.66;64.10;97285.56;4201756;28;5627;-72
2022/12/31 15:12:01;;;;;;;;;;;;;;;15.66;64.06;97291.69;4199661;28;5739;-71
2022/12/31 15:14:43;;;;;;;;;;;;;;;15.65;64.12;97291.91;4199737;28;5777;-71
2022/12/31 15:16:55;;;;;;;;;;;;;;;15.62;63.98;97303.78;4195631;28;6320;-71
2022/12/31 15:19:23;;;;;;;;;;;;;;;15.62;64.09;97294.97;4201176;28;6380;-71
2022/12/31 15:21:50;;;;;;;;;;;;;;;15.62;64.07;97302.97;4201129;28;5635;-71
2022/12/31 15:23:54;;;;;;;;;;;;;;;15.60;64.15;97303.19;4201412;28;5648;-71
2022/12/31 15:26:00;;;;;;;;;;;;;;;15.57;64.11;97300.94;4201077;28;5741;-71
2022/12/31 15:28:05;;;;;;;;;;;;;;;15.59;64.04;97293.53;4201191;28;5726;-71
2022/12/31 15:30:31;;;;;;;;;;;;;;;15.61;64.14;97280.84;4201094;28;5742;-71
2022/12/31 15:32:39;;;;;;;;;;;;;;;15.64;64.10;97291.09;4194226;28;5750;-71
2022/12/31 15:34:43;;;;;;;;;;;;;;;15.63;64.18;97278.81;4191700;28;5704;-71
2022/12/31 15:36:52;;;;;;;;;;;;;;;15.65;64.12;97287.41;4196305;28;5754;-71
2022/12/31 15:39:23;;;;;;;;;;;;;;;15.69;63.83;97293.94;4200789;28;6391;-71
2022/12/31 15:41:28;;;;;;;;;;;;;;;15.71;64.01;97291.03;4193261;28;5790;-71
2022/12/31 15:43:37;;;;;;;;;;;;;;;15.71;64.01;97291.03;4200830;28;5778;-71
2022/12/31 15:45:42;;;;;;;;;;;;;;;15.71;63.95;97294.53;4200755;28;5718;-71
2022/12/31 15:47:48;;;;;;;;;;;;;;;15.70;63.97;97295.56;4200512;28;5621;-71
2022/12/31 15:49:54;;;;;;;;;;;;;;;15.72;63.93;97303.34;4201132;28;5170;-71
2022/12/31 15:52:01;;;;;;;;;;;;;;;15.71;63.99;97299.03;4200541;28;5620;-71
2022/12/31 15:54:05;;;;;;;;;;;;;;;15.68;63.93;97308.28;4200706;28;5843;-71
2022/12/31 15:56:15;;;;;;;;;;;;;;;15.68;64.00;97308.28;4200350;28;5608;-71
2022/12/31 15:58:22;;;;;;;;;;;;;;;15.71;63.90;97312.38;4200313;28;5722;-71
2022/12/31 16:00:24;;;;;;;;;;;;;;;15.72;63.93;97301.50;4192629;28;5715;-71
2022/12/31 16:02:28;;;;;;;;;;;;;;;15.72;63.74;97309.47;4200194;28;5898;-71
2022/12/31 16:04:32;;;;;;;;;;;;;;;15.70;63.85;97314.22;4199238;28;5742;-71
2022/12/31 16:06:38;;;;;;;;;;;;;;;15.71;63.77;97310.53;4194041;28;5751;-71
2022/12/31 16:08:45;;;;;;;;;;;;;;;15.72;63.63;97309.47;4177311;28;5081;-70
2022/12/31 16:10:47;;;;;;;;;;;;;;;15.74;63.67;97311.94;4198311;28;5706;-70
2022/12/31 16:12:50;;;;;;;;;;;;;;;15.76;63.71;97319.75;4199981;28;5722;-71
2022/12/31 16:14:55;;;;;;;;;;;;;;;15.73;63.65;97318.31;4200082;28;5653;-70
2022/12/31 16:17:00;;;;;;;;;;;;;;;15.71;63.63;97320.38;4200004;28;5789;-71
2022/12/31 16:19:03;;;;;;;;;;;;;;;15.68;63.69;97324.28;4200242;28;5702;-72
2022/12/31 16:21:06;;;;;;;;;;;;;;;15.67;63.66;97322.66;4199874;28;5795;-72
2022/12/31 16:23:21;;;;;;;;;;;;;;;15.65;63.76;97324.72;4200165;28;5764;-72
2022/12/31 16:25:24;;;;;;;;;;;;;;;15.65;63.73;97330.03;4200286;28;5802;-71
2022/12/31 16:27:36;;;;;;;;;;;;;;;15.64;63.62;97327.59;4199727;28;5767;-71
2022/12/31 16:29:44;;;;;;;;;;;;;;;15.62;63.74;97341.09;4199730;28;5057;-72
2022/12/31 16:31:54;;;;;;;;;;;;;;;15.61;63.70;97336.00;4199470;28;5714;-71
2022/12/31 16:34:05;;;;;;;;;;;;;;;15.58;63.60;97344.38;4186700;28;5720;-72
2022/12/31 16:36:20;;;;;;;;;;;;;;;15.61;63.62;97336.00;4198456;28;5900;-72
2022/12/31 16:38:32;;;;;;;;;;;;;;;15.61;63.69;97343.97;4192102;28;5690;-72
2022/12/31 16:40:35;;;;;;;;;;;;;;;15.61;63.54;97343.97;4199579;28;5900;-72
2022/12/31 16:42:39;;;;;;;;;;;;;;;15.62;63.58;97340.28;4199785;28;5702;-72
2022/12/31 16:44:46;;;;;;;;;;;;;;;15.62;63.45;97351.75;4200011;28;6144;-72
2022/12/31 16:46:50;;;;;;;;;;;;;;;15.63;63.46;97345.44;4199376;28;5612;-72
2022/12/31 16:48:56;;;;;;;;;;;;;;;15.63;63.50;97342.78;4199771;28;5643;-72
2022/12/31 16:50:59;;;;;;;;;;;;;;;15.61;63.46;97344.81;4199375;28;5629;-72
2022/12/31 16:53:05;;;;;;;;;;;;;;;15.58;63.48;97333.72;4199727;28;5724;-72
2022/12/31 16:55:15;;;;;;;;;;;;;;;15.57;63.42;97342.75;4199799;28;5652;-72
2022/12/31 16:57:21;;;;;;;;;;;;;;;15.55;63.45;97344.81;4199415;28;6507;-71
2022/12/31 16:59:28;;;;;;;;;;;;;;;15.55;63.58;97348.28;4191892;28;5714;-71
2022/12/31 17:01:38;;;;;;;;;;;;;;;15.56;63.55;97351.78;4199430;28;5817;-71
2022/12/31 17:03:44;;;;;;;;;;;;;;;15.54;63.50;97349.31;4199651;28;6181;-71
2022/12/31 17:06:02;;;;;;;;;;;;;;;15.53;63.54;97355.69;4199617;28;5711;-71
2022/12/31 17:08:22;;;;;;;;;;;;;;;15.51;63.51;97356.91;4199422;28;5710;-71
2022/12/31 17:10:34;;;;;;;;;;;;;;;15.48;63.53;97350.16;4191955;28;5814;-71
2022/12/31 17:12:43;;;;;;;;;;;;;;;15.48;63.41;97352.00;4193537;28;5683;-71
2022/12/31 17:15:07;;;;;;;;;;;;;;;15.47;63.68;97353.84;4191143;28;5786;-71
2022/12/31 17:17:19;;;;;;;;;;;;;;;15.47;63.50;97353.84;4199122;28;6279;-71
2022/12/31 17:19:41;;;;;;;;;;;;;;;15.45;63.57;97353.25;4191495;28;5632;-72
2022/12/31 17:21:48;;;;;;;;;;;;;;;15.43;63.50;97361.47;4199207;28;5766;-72
2022/12/31 17:23:56;;;;;;;;;;;;;;;15.42;63.47;97357.16;4199113;28;5785;-72
2022/12/31 17:26:07;;;;;;;;;;;;;;;15.45;63.39;97361.25;4199613;28;5074;-73
2022/12/31 17:28:21;;;;;;;;;;;;;;;15.48;63.43;97360.00;4199489;28;6503;-73
2022/12/31 17:30:39;;;;;;;;;;;;;;;15.46;63.35;97362.88;4191481;28;5692;-71
2022/12/31 17:32:43;;;;;;;;;;;;;;;15.46;63.35;97370.88;4199141;28;5624;-71
2022/12/31 17:34:48;;;;;;;;;;;;;;;15.43;63.32;97364.13;4199453;28;5639;-71
2022/12/31 17:36:58;;;;;;;;;;;;;;;15.41;63.57;97363.53;4199503;28;5628;-71
2022/12/31 17:39:16;;;;;;;;;;;;;;;15.39;63.26;97376.19;4199047;28;5633;-71
2022/12/31 17:41:27;;;;;;;;;;;;;;;15.34;63.43;97372.53;4198580;28;5710;-71
2022/12/31 17:43:32;;;;;;;;;;;;;;;15.29;63.53;97367.84;4174431;28;5642;-71
2022/12/31 17:45:38;;;;;;;;;;;;;;;15.26;63.50;97372.75;4199446;28;5782;-71
2022/12/31 17:47:46;;;;;;;;;;;;;;;15.25;63.52;97371.13;4199154;28;5719;-71
2022/12/31 17:49:49;;;;;;;;;;;;;;;15.25;63.51;97368.47;4199252;28;5846;-71
2022/12/31 17:51:52;;;;;;;;;;;;;;;15.25;63.67;97360.47;4200598;28;5722;-71
2022/12/31 17:53:55;;;;;;;;;;;;;;;15.24;63.45;97369.50;4202503;28;5707;-71
2022/12/31 17:56:02;;;;;;;;;;;;;;;15.25;63.42;97357.81;4176334;28;5667;-71
2022/12/31 17:58:06;;;;;;;;;;;;;;;15.26;63.51;97359.44;4202445;28;5719;-71
2022/12/31 18:00:17;;;;;;;;;;;;;;;15.26;63.66;97348.78;4202128;28;6339;-71
2022/12/31 18:02:20;;;;;;;;;;;;;;;15.27;63.55;97355.75;4194043;28;5695;-71
2022/12/31 18:04:23;;;;;;;;;;;;;;;15.28;63.40;97365.38;4194701;28;5671;-71
2022/12/31 18:06:26;;;;;;;;;;;;;;;15.28;63.42;97360.03;4202267;28;5150;-72
2022/12/31 18:08:29;;;;;;;;;;;;;;;15.28;63.36;97355.53;4202490;28;6398;-71
2022/12/31 18:10:35;;;;;;;;;;;;;;;15.26;63.42;97360.25;4202489;28;5070;-71
2022/12/31 18:12:39;;;;;;;;;;;;;;;15.28;63.50;97360.88;4201934;28;5726;-71
2022/12/31 18:14:45;;;;;;;;;;;;;;;15.28;63.51;97354.72;4202075;28;5812;-71
2022/12/31 18:16:48;;;;;;;;;;;;;;;15.29;63.55;97362.53;4202071;28;5664;-71
2022/12/31 18:18:50;;;;;;;;;;;;;;;15.30;63.40;97366.00;4202301;28;5624;-71
2022/12/31 18:20:56;;;;;;;;;;;;;;;15.29;63.51;97361.69;4202041;28;6561;-71
2022/12/31 18:22:59;;;;;;;;;;;;;;;15.28;63.51;97360.03;4202355;28;5778;-71
2022/12/31 18:25:03;;;;;;;;;;;;;;;15.28;63.50;97360.03;4201883;28;5909;-71
2022/12/31 18:27:13;;;;;;;;;;;;;;;15.27;63.63;97361.06;4201873;28;5790;-71
2022/12/31 18:29:18;;;;;;;;;;;;;;;15.28;63.44;97354.72;4201623;28;5646;-71
2022/12/31 18:31:26;;;;;;;;;;;;;;;15.28;63.48;97354.72;4201948;28;5698;-70
2022/12/31 18:33:28;;;;;;;;;;;;;;;15.27;63.52;97355.75;4201468;28;6329;-71
2022/12/31 18:35:31;;;;;;;;;;;;;;;15.28;63.43;97360.88;4202013;28;5631;-71
2022/12/31 18:37:54;;;;;;;;;;;;;;;15.29;63.45;97364.34;4197385;28;5726;-71
2022/12/31 18:39:57;;;;;;;;;;;;;;;15.28;63.48;97365.38;4201577;28;5628;-70
2022/12/31 18:41:59;;;;;;;;;;;;;;;15.27;63.48;97369.88;4201467;28;5718;-71
2022/12/31 18:44:02;;;;;;;;;;;;;;;15.27;63.48;97369.06;4202041;28;5640;-71
2022/12/31 18:46:05;;;;;;;;;;;;;;;15.27;63.48;97363.75;4201437;28;5878;-71
2022/12/31 18:48:09;;;;;;;;;;;;;;;15.27;63.61;97369.88;4201846;28;5702;-71
2022/12/31 18:50:13;;;;;;;;;;;;;;;15.28;63.49;97370.69;4201865;28;5707;-71
2022/12/31 18:52:17;;;;;;;;;;;;;;;15.27;63.39;97369.06;4201710;28;5730;-71
2022/12/31 18:54:20;;;;;;;;;;;;;;;15.29;63.48;97372.34;4185264;28;5717;-71
2022/12/31 18:56:24;;;;;;;;;;;;;;;15.28;63.32;97373.38;4201898;28;5715;-71
2022/12/31 18:58:26;;;;;;;;;;;;;;;15.25;63.40;97366.63;4201604;28;5718;-71
2022/12/31 19:00:29;;;;;;;;;;;;;;;15.23;63.56;97374.00;4201670;28;5617;-71
2022/12/31 19:02:32;;;;;;;;;;;;;;;15.23;63.52;97373.19;4200746;28;5760;-71
2022/12/31 19:04:36;;;;;;;;;;;;;;;15.22;63.53;97380.34;4201309;28;5837;-71
2022/12/31 19:06:38;;;;;;;;;;;;;;;15.23;63.46;97374.00;4201642;28;5743;-71
2022/12/31 19:08:41;;;;;;;;;;;;;;;15.23;63.59;97373.19;4201598;28;5726;-71
2022/12/31 19:10:44;;;;;;;;;;;;;;;15.22;63.62;97377.69;4201332;28;5765;-71
2022/12/31 19:12:48;;;;;;;;;;;;;;;15.22;63.47;97383.03;4201340;28;5824;-71
2022/12/31 19:14:51;;;;;;;;;;;;;;;15.22;63.70;97379.53;4201423;28;5738;-71
2022/12/31 19:16:54;;;;;;;;;;;;;;;15.21;63.64;97378.72;4200797;28;5785;-71
2022/12/31 19:18:57;;;;;;;;;;;;;;;15.20;63.58;97378.94;4201409;28;5706;-71
2022/12/31 19:21:14;;;;;;;;;;;;;;;15.20;63.72;97386.94;4201454;28;5781;-71
2022/12/31 19:23:19;;;;;;;;;;;;;;;15.19;63.68;97379.97;4201203;28;5715;-71
2022/12/31 19:25:24;;;;;;;;;;;;;;;15.19;63.71;97383.44;4193020;28;6483;-71
2022/12/31 19:27:27;;;;;;;;;;;;;;;15.20;63.60;97378.94;4200570;28;5789;-70
2022/12/31 19:29:30;;;;;;;;;;;;;;;15.21;63.72;97378.72;4200983;28;5861;-71
2022/12/31 19:31:32;;;;;;;;;;;;;;;15.21;63.86;97377.91;4198826;28;5711;-71
2022/12/31 19:33:35;;;;;;;;;;;;;;;15.21;63.66;97376.06;4186997;28;5749;-71
2022/12/31 19:35:40;;;;;;;;;;;;;;;15.20;63.74;97378.94;4201093;28;5687;-70
2022/12/31 19:37:45;;;;;;;;;;;;;;;15.22;63.60;97382.19;4200775;28;5635;-71
2022/12/31 19:39:48;;;;;;;;;;;;;;;15.23;63.62;97381.19;4200801;28;5779;-71
2022/12/31 19:41:51;;;;;;;;;;;;;;;15.23;63.66;97373.19;4200414;28;5687;-71
2022/12/31 19:44:01;;;;;;;;;;;;;;;15.21;63.62;97380.56;4201003;28;5757;-71
2022/12/31 19:46:05;;;;;;;;;;;;;;;15.22;63.55;97376.88;4200652;28;5826;-71
2022/12/31 19:48:10;;;;;;;;;;;;;;;15.21;63.65;97376.06;4200715;28;5738;-71
2022/12/31 19:50:16;;;;;;;;;;;;;;;15.23;63.69;97394.50;4200704;28;5628;-70
2022/12/31 19:52:19;;;;;;;;;;;;;;;15.23;63.64;97389.16;4200773;28;5718;-72
2022/12/31 19:54:23;;;;;;;;;;;;;;;15.21;63.58;97386.72;4192436;28;5793;-71
2022/12/31 19:56:26;;;;;;;;;;;;;;;15.21;63.65;97391.22;4200753;28;6522;-71
2022/12/31 19:58:29;;;;;;;;;;;;;;;15.22;63.68;97396.34;4200703;28;5805;-72
2022/12/31 20:00:31;;;;;;;;;;;;;;;15.21;63.75;97389.38;4200341;28;5826;-72
2022/12/31 20:02:35;;;;;;;;;;;;;;;15.20;63.57;97395.72;4200066;28;5794;-72
2022/12/31 20:04:38;;;;;;;;;;;;;;;15.18;63.60;97395.13;4200740;28;5632;-72
2022/12/31 20:06:40;;;;;;;;;;;;;;;15.17;63.48;97401.44;4200379;28;5830;-71
2022/12/31 20:08:43;;;;;;;;;;;;;;;15.18;63.59;97403.13;4200716;28;5778;-72
2022/12/31 20:10:47;;;;;;;;;;;;;;;15.19;63.58;97409.25;4197178;28;5869;-71
2022/12/31 20:12:50;;;;;;;;;;;;;;;15.19;63.65;97403.94;4198918;28;5745;-71
2022/12/31 20:14:53;;;;;;;;;;;;;;;15.17;63.54;97424.59;4197256;28;6334;-72
2022/12/31 20:16:55;;;;;;;;;;;;;;;15.15;63.71;97401.66;4190582;28;5813;-72
2022/12/31 20:18:58;;;;;;;;;;;;;;;15.14;63.62;97418.66;4200444;28;5713;-72
2022/12/31 20:21:01;;;;;;;;;;;;;;;15.14;63.70;97415.19;4197163;28;6353;-72
2022/12/31 20:23:04;;;;;;;;;;;;;;;15.15;63.58;97427.47;4198225;28;5651;-72
2022/12/31 20:25:07;;;;;;;;;;;;;;;15.14;63.50;97429.31;4200102;28;5632;-72
2022/12/31 20:27:11;;;;;;;;;;;;;;;15.13;63.51;97433.00;4199998;28;5640;-72
2022/12/31 20:29:20;;;;;;;;;;;;;;;15.11;63.63;97432.41;4191875;28;5944;-71
2022/12/31 20:31:24;;;;;;;;;;;;;;;15.11;63.55;97443.06;4199774;28;5714;-72
2022/12/31 20:33:30;;;;;;;;;;;;;;;15.09;63.58;97442.44;4195762;28;5646;-72
2022/12/31 20:35:32;;;;;;;;;;;;;;;15.09;63.61;97441.63;4189764;28;6587;-72
2022/12/31 20:37:35;;;;;;;;;;;;;;;15.09;63.59;97441.63;4194055;28;5774;-72
2022/12/31 20:39:38;;;;;;;;;;;;;;;15.08;63.48;97438.16;4199941;28;5699;-72
2022/12/31 20:41:41;;;;;;;;;;;;;;;15.09;63.54;97441.63;4199821;28;5739;-72
2022/12/31 20:43:45;;;;;;;;;;;;;;;15.10;63.53;97440.59;4199848;28;5719;-72
2022/12/31 20:45:48;;;;;;;;;;;;;;;15.07;63.45;97441.84;4199980;28;5722;-72
2022/12/31 20:47:51;;;;;;;;;;;;;;;15.09;63.45;97446.97;4199413;28;5770;-72
2022/12/31 20:49:53;;;;;;;;;;;;;;;15.07;63.65;97433.84;4199936;28;5647;-72
2022/12/31 20:52:14;;;;;;;;;;;;;;;15.06;63.45;97440.22;4199712;28;5623;-72
2022/12/31 20:54:17;;;;;;;;;;;;;;;15.07;63.52;97435.69;4199673;28;5636;-72
2022/12/31 20:56:19;;;;;;;;;;;;;;;15.08;63.33;97432.00;4199318;28;5750;-72
2022/12/31 20:58:23;;;;;;;;;;;;;;;15.07;63.51;97438.38;4193268;28;5707;-72
2022/12/31 21:00:27;;;;;;;;;;;;;;;15.06;63.36;97436.69;4189923;28;5635;-72
2022/12/31 21:02:30;;;;;;;;;;;;;;;15.07;63.34;97446.34;4198491;28;5785;-72
2022/12/31 21:04:45;;;;;;;;;;;;;;;15.06;63.32;97442.88;4200509;28;5628;-72
2022/12/31 21:06:48;;;;;;;;;;;;;;;15.07;63.51;97449.00;4198499;28;5765;-72
2022/12/31 21:08:51;;;;;;;;;;;;;;;15.07;63.36;97444.50;4199523;28;5647;-72
2022/12/31 21:10:54;;;;;;;;;;;;;;;15.09;63.34;97441.63;4200351;28;5703;-72